Aircraft
UPR1019 PT-GAE C172
SNKF
Das Bandeirinhas Airport
SBBQ
Major Brigadeiro Doorgal Borges Airport
Pilot:: Rafael
Aircraft:: C172SP Classic Passengers
Alternate: SBJF
Network: ivao
FLIGHT DETAILS
Distance: 32nm Duration 00h 18m
Cruise Speed: Flight Level: 6000
Validation: Validated Type Charter
Flight Fuel
ZFW: 856
Block Fuel/Initial FOB: 87
Flight Fuel: 12
Cargo
Passengers: 2
Cargo: 15
ROUTE
ROUTE: DCT
REMARKS:
DATE
Date: 26-05-07
Departure Time: 2332
Cargo: 15
FLIGHT DETAILS
Crashed: No
Validator Comments: Validado por Claudenir
Flight Rating: 95
LANDING ANALYSIS
Landing wind: 49º/10 kt
Landing heading: 18º
Landing VS:: -277 ft/min
Landing IAS:: 45 kt
Landing Force G: 1.1 G
Landing Bank: -1
Landing Pitch: -6
Landing Flaps: 100
Navigation Lights: ON
Landing Lights: ON
Beacon Lights: ON
Strobe Lights: ON
viserfly

ALTITUDE CHART

viserfly

MAIN EVENTS

DATE EVENT IAS ALTITUDE
2026-05-07 23:25:07 FLYacars version 1.3.5 0 3436
2026-05-07 23:25:07 FLAPS 100% 0 3436
2026-05-07 23:25:07 Beacon Lights ON 0 3436
2026-05-07 23:25:07 Taxi Lights ON 0 3436
2026-05-07 23:25:07 Starting Engine 1 0 3436
2026-05-07 23:26:17 FLAPS 66% 0 3436
2026-05-07 23:26:17 FLAPS 33% 0 3436
2026-05-07 23:26:17 FLAPS 0% 0 3436
2026-05-07 23:26:24 FLAPS 33% 0 3436
2026-05-07 23:26:58 Aircraft taxiing to runway 3 3435
2026-05-07 23:28:59 Landing Lights ON 0 3434
2026-05-07 23:29:00 Strobe Lights ON 0 3434
2026-05-07 23:32:04 Detected Take-off roll, HDG 212, IAS 63kt, GS 82kt, G-force 1.0g, Pitch -6.4deg, Bank -1.2deg, Wind 046/08kt, Temp 22°C 63 3457
2026-05-07 23:32:04 Airborne 63 3457
2026-05-07 23:34:45 Simulator Paused 88 4838
2026-05-07 23:35:34 Simulator Un-Paused 88 4838
2026-05-07 23:36:19 Stall flag 71 5127
2026-05-07 23:37:43 Aircraft on Top Of Climb at 5501ft, IAS 90kt, GS 119kt, HDG 194deg, TAT 16deg, WIND 22/18kt 90 5501
2026-05-07 23:38:10 FLAPS 0% 94kt, ALT 5603ft 94 5603
2026-05-07 23:46:15 Aircraft on Top Of Descent at 5479ft, IAS 110kt, GS 142kt, HDG 198deg, TAT 16deg, WIND 4/19kt 110 5479
2026-05-07 23:49:11 FLAPS 33% 87kt, ALT 4163ft 87 4163
2026-05-07 23:50:14 FLAPS 66% 103kt, ALT 3951ft 103 3951
2026-05-07 23:50:15 FLAPS 100% 103kt, ALT 3943ft 103 3943
2026-05-07 23:50:48 Landed at destination with a landing rate of -277fpm, G-force 1.1g, Pitch -6.3deg, Bank -0.9deg, HDG 18deg, IAS 45kt, GS 53kt, Wind 049/10kt, Temp 22°C 45 3642
2026-05-07 23:50:48 Incorrect altimeter settings on landing 45 3642
2026-05-07 23:50:50 Incorrect altimeter settings on takeoff 43 3643
2026-05-07 23:51:15 Aircraft taxiing to apron 15 3633
2026-05-07 23:52:40 Strobe Lights OFF 0 3639
2026-05-07 23:52:41 Landing Lights OFF 0 3639
2026-05-07 23:53:05 Taxi Lights OFF 0 3638
2026-05-07 23:53:12 Engine 1 shutdown 0 3638
2026-05-07 23:53:46 Aircraft at gate/stand, ground services are moving into position, disembarkation has begun. Remaining FOB 75kg FLYacars v1.3.5 0 3638
viserfly

ACARS DATA

DATE IAS GS ALTITUDE FUEL CONSUMED OAT FLIGHT STATUS
2026-05-07 23:25:37 0 0 3436 0 22 BOARDING
2026-05-07 23:26:07 0 0 3436 0 22 BOARDING
2026-05-07 23:26:37 0 0 3436 0 22 BOARDING
2026-05-07 23:27:07 0 1 3434 0 22 TAXI TO RUNWAY
2026-05-07 23:27:37 0 0 3434 0 22 TAXI TO RUNWAY
2026-05-07 23:28:07 0 0 3434 0 22 TAXI TO RUNWAY
2026-05-07 23:28:37 0 0 3434 1 22 TAXI TO RUNWAY
2026-05-07 23:29:07 0 0 3434 1 22 TAXI TO RUNWAY
2026-05-07 23:29:37 0 0 3434 1 22 TAXI TO RUNWAY
2026-05-07 23:30:07 0 0 3434 1 22 TAXI TO RUNWAY
2026-05-07 23:30:37 0 1 3434 1 22 TAXI TO RUNWAY
2026-05-07 23:31:07 1 10 3431 1 22 TAXI TO RUNWAY
2026-05-07 23:31:37 0 19 3431 1 22 TAXI TO RUNWAY
2026-05-07 23:32:07 65 84 3471 1 22 TAKEOFF
2026-05-07 23:32:37 73 89 3807 1 21 TAKEOFF
2026-05-07 23:33:07 69 98 4059 2 20 TAKEOFF
2026-05-07 23:33:37 80 102 4303 2 19 TAKEOFF
2026-05-07 23:34:07 93 115 4522 3 18 INITIAL CLIMB
2026-05-07 23:34:37 90 110 4774 3 18 INITIAL CLIMB
2026-05-07 23:35:07 88 109 4838 3 18 INITIAL CLIMB
2026-05-07 23:35:37 89 109 4863 3 18 INITIAL CLIMB
2026-05-07 23:36:07 78 106 5086 3 17 INITIAL CLIMB
2026-05-07 23:36:37 74 100 5242 4 17 INITIAL CLIMB
2026-05-07 23:37:07 85 110 5373 4 16 INITIAL CLIMB
2026-05-07 23:37:37 88 118 5489 4 16 INITIAL CLIMB
2026-05-07 23:38:07 93 122 5594 5 16 INITIAL CLIMB
2026-05-07 23:38:37 100 125 5683 5 16 CLIMB
2026-05-07 23:39:07 94 124 5826 5 15 ENROUTE
2026-05-07 23:39:37 90 121 6013 6 15 CLIMB
2026-05-07 23:40:07 91 116 6200 6 14 ENROUTE
2026-05-07 23:40:37 102 127 6222 6 14 ENROUTE
2026-05-07 23:41:07 104 132 6211 7 14 ENROUTE
2026-05-07 23:41:37 108 136 6216 7 14 ENROUTE
2026-05-07 23:42:07 110 134 6218 8 14 ENROUTE
2026-05-07 23:42:37 111 136 6209 8 14 ENROUTE
2026-05-07 23:43:07 107 136 6197 8 14 ENROUTE
2026-05-07 23:43:37 109 141 6210 9 14 ENROUTE
2026-05-07 23:44:07 112 142 6219 9 14 ENROUTE
2026-05-07 23:44:37 112 139 6208 9 14 ENROUTE
2026-05-07 23:45:07 110 140 6055 10 15 DESCENT
2026-05-07 23:45:37 109 142 5805 10 15 DESCENT
2026-05-07 23:46:07 106 142 5547 10 16 DESCENT
2026-05-07 23:46:37 110 139 5303 10 17 DESCENT
2026-05-07 23:47:07 111 142 5057 10 17 DESCENT
2026-05-07 23:47:37 114 149 4812 11 18 DESCENT
2026-05-07 23:48:07 108 138 4552 11 20 DESCENT
2026-05-07 23:48:37 111 134 4290 11 21 DESCENT
2026-05-07 23:49:07 89 106 4159 11 21 DESCENT
2026-05-07 23:49:37 95 95 4086 11 22 ON FINAL
2026-05-07 23:50:07 99 99 4061 11 22 ON FINAL
2026-05-07 23:50:37 60 66 3728 12 22 ON FINAL
2026-05-07 23:51:07 22 29 3638 12 23 TAXI TO APRON
2026-05-07 23:51:37 0 8 3630 12 22 TAXI TO APRON
2026-05-07 23:52:07 0 10 3634 12 22 TAXI TO APRON
2026-05-07 23:52:37 0 8 3639 12 22 TAXI TO APRON
2026-05-07 23:53:07 0 0 3638 12 22 TAXI TO APRON
2026-05-07 23:53:37 0 0 3638 12 22 TAXI TO APRON
  • Join our VA!

    It has been 11 years of great learning, friendships, and stories.

  • Sign up now!